Cachinal, Argentina
Current Conditions -  °F | °C
As of 5:00 PM on Monday 24 Nov 2014 (Local Time) from SASA Reporting Station
Scattered Clouds Scattered Clouds  
Wind Chill: 91°   Ceiling: Unl
Heat Index: 91°   Visibility: 6mi
Dew Point: 55°   Wind: 7mph
Humidity: 29%   Direction: 20°NNE
Pressure: 29.74"   Gusts: NA
Location:  24.25°S, 66.07°W
Report Text: SASA 242000Z 02006KT 9999 FEW030 SCT035TCU 33/13 Q1007
Loading
Personal Weather Stations






























Interactive Weather Map New forecast layout! Learn more

10-Day Weather Forecast

Advertisements
Track Severe Weather on mobile